createdAt,value
2023-01-30T00:00:16.733Z,12.61
2023-01-30T00:05:37.424Z,12.03
2023-01-30T00:10:59.036Z,10.51
2023-01-30T00:16:22.762Z,15.39
2023-01-30T00:21:46.492Z,11.32
2023-01-30T00:27:11.501Z,12.82
2023-01-30T00:32:36.686Z,12.09
2023-01-30T00:37:58.941Z,12.43
2023-01-30T00:43:20.080Z,13.24
2023-01-30T00:48:45.447Z,14.02
2023-01-30T00:54:09.650Z,12.26
2023-01-30T00:59:55.810Z,13.79
2023-01-30T01:05:19.714Z,12.38
2023-01-30T01:10:44.234Z,13.33
2023-01-30T01:16:08.659Z,11.89
2023-01-30T01:21:32.796Z,14.48
2023-01-30T01:26:57.022Z,15.18
2023-01-30T01:32:22.917Z,12.92
2023-01-30T01:37:43.968Z,13.16
2023-01-30T01:43:06.929Z,14.97
2023-01-30T01:48:31.879Z,12.47
2023-01-30T01:54:17.476Z,13.54
2023-01-30T01:59:40.402Z,14.43
2023-01-30T02:05:04.733Z,14.22
2023-01-30T02:10:28.972Z,13.60
2023-01-30T02:15:50.017Z,12.74
2023-01-30T02:21:11.229Z,11.55
2023-01-30T02:27:07.738Z,14.65
2023-01-30T02:32:56.304Z,12.22
2023-01-30T02:38:22.165Z,10.92
2023-01-30T02:43:48.741Z,10.85
2023-01-30T02:49:12.382Z,10.96
2023-01-30T02:54:55.157Z,13.67
2023-01-30T03:00:17.938Z,12.86
2023-01-30T03:05:38.679Z,12.31
2023-01-30T03:11:09.420Z,12.74
2023-01-30T03:16:59.787Z,11.80
2023-01-30T03:22:19.691Z,9.88
2023-01-30T03:27:42.992Z,11.71
2023-01-30T03:33:07.345Z,13.48
2023-01-30T03:38:53.151Z,12.75
2023-01-30T03:44:12.463Z,13.06
2023-01-30T03:49:35.456Z,10.38
2023-01-30T03:54:59.856Z,12.05
2023-01-30T04:00:27.144Z,13.28
2023-01-30T04:06:03.566Z,12.49
2023-01-30T04:11:24.338Z,13.97
2023-01-30T04:16:48.753Z,14.08
2023-01-30T04:22:12.568Z,15.42
2023-01-30T04:27:35.787Z,13.59
2023-01-30T04:32:57.750Z,15.40
2023-01-30T04:38:20.207Z,15.61
2023-01-30T04:43:39.414Z,15.69
2023-01-30T04:49:03.045Z,15.86
2023-01-30T04:54:37.077Z,14.85
2023-01-30T05:00:00.252Z,13.91
2023-01-30T05:05:44.750Z,15.83
2023-01-30T05:11:08.885Z,14.29
2023-01-30T05:16:33.018Z,15.40
2023-01-30T05:21:57.480Z,12.77
2023-01-30T05:27:18.887Z,14.21
2023-01-30T05:32:39.005Z,13.92
2023-01-30T05:38:02.135Z,13.92
2023-01-30T05:43:23.390Z,12.15
2023-01-30T05:48:48.496Z,14.22
2023-01-30T05:54:08.781Z,11.56
2023-01-30T05:59:32.500Z,12.12
2023-01-30T06:04:54.003Z,12.67
2023-01-30T06:10:16.617Z,10.91
2023-01-30T06:15:37.542Z,12.54
2023-01-30T06:20:59.711Z,11.06
2023-01-30T06:26:24.154Z,12.21
2023-01-30T06:31:46.751Z,11.29
2023-01-30T06:37:07.444Z,11.86
2023-01-30T06:42:28.254Z,11.89
2023-01-30T06:47:48.854Z,10.39
2023-01-30T06:53:08.134Z,11.80
2023-01-30T06:58:31.616Z,10.54
2023-01-30T07:03:54.731Z,11.54
2023-01-30T07:09:18.982Z,10.38
2023-01-30T07:14:43.195Z,9.31
2023-01-30T07:20:03.600Z,12.34
2023-01-30T07:25:50.991Z,10.79
2023-01-30T07:31:15.072Z,9.42
2023-01-30T07:37:02.175Z,10.12
2023-01-30T07:48:40.061Z,8.46
2023-01-30T07:54:04.549Z,10.62
2023-01-30T07:59:26.975Z,9.88
2023-01-30T08:04:50.567Z,10.50
2023-01-30T08:10:12.771Z,10.38
2023-01-30T08:15:35.132Z,10.25
2023-01-30T08:20:55.948Z,10.08
2023-01-30T08:26:17.303Z,9.71
2023-01-30T08:31:38.468Z,10.28
2023-01-30T08:37:01.283Z,11.99
2023-01-30T08:42:23.896Z,10.10
2023-01-30T08:47:47.094Z,9.40
2023-01-30T08:53:12.453Z,8.33
2023-01-30T08:58:33.954Z,10.16
2023-01-30T09:03:54.058Z,9.76
2023-01-30T09:09:17.141Z,10.27
2023-01-30T09:14:37.748Z,10.12
2023-01-30T09:20:18.525Z,10.68
2023-01-30T09:25:40.854Z,9.08
2023-01-30T09:31:00.423Z,10.20
2023-01-30T09:36:24.549Z,8.80
2023-01-30T09:41:49.250Z,10.00
2023-01-30T09:47:20.300Z,9.60
2023-01-30T09:52:46.629Z,8.34
2023-01-30T09:58:10.925Z,8.48
2023-01-30T10:03:33.488Z,8.31
2023-01-30T10:08:58.546Z,7.81
2023-01-30T10:14:21.505Z,8.09
2023-01-30T10:20:01.069Z,10.40
2023-01-30T10:25:36.662Z,8.88
2023-01-30T10:30:57.454Z,9.59
2023-01-30T10:36:21.978Z,7.64
2023-01-30T10:41:40.686Z,8.19
2023-01-30T10:47:04.436Z,8.79
2023-01-30T10:52:43.098Z,9.71
2023-01-30T10:58:06.641Z,6.35
2023-01-30T11:03:31.389Z,1.81
2023-01-30T11:08:54.855Z,2.42
2023-01-30T11:14:18.762Z,3.01
2023-01-30T11:19:43.077Z,1.96
2023-01-30T11:25:08.340Z,2.12
2023-01-30T11:30:32.410Z,2.91
2023-01-30T11:35:54.865Z,1.83
2023-01-30T11:41:15.672Z,1.43
2023-01-30T11:46:39.311Z,1.87
2023-01-30T11:51:59.068Z,3.32
2023-01-30T11:57:19.910Z,1.51
2023-01-30T12:02:39.438Z,2.12
2023-01-30T12:08:01.415Z,2.05
2023-01-30T12:13:33.904Z,1.74
2023-01-30T12:18:57.171Z,1.99
2023-01-30T12:24:17.994Z,1.45
2023-01-30T12:29:37.863Z,2.03
2023-01-30T12:35:01.280Z,1.77
2023-01-30T12:40:51.004Z,1.43
2023-01-30T12:46:17.044Z,1.46
2023-01-30T12:51:43.326Z,1.92
2023-01-30T12:57:11.049Z,1.61
2023-01-30T13:02:34.272Z,2.62
2023-01-30T13:08:06.271Z,1.90
2023-01-30T13:13:38.571Z,2.61
2023-01-30T13:19:31.210Z,2.33
2023-01-30T13:25:06.198Z,2.51
2023-01-30T13:30:34.905Z,2.39
2023-01-30T13:35:56.638Z,4.05
2023-01-30T13:41:22.515Z,2.86
2023-01-30T13:46:43.476Z,2.13
2023-01-30T13:52:05.577Z,2.76
2023-01-30T13:57:29.850Z,2.87
2023-01-30T14:03:00.768Z,2.31
2023-01-30T14:08:42.448Z,2.64
2023-01-30T14:14:09.149Z,3.11
2023-01-30T14:19:44.920Z,3.35
2023-01-30T14:25:17.176Z,2.35
2023-01-30T14:31:01.191Z,2.53
2023-01-30T14:36:22.577Z,5.54
2023-01-30T14:41:55.240Z,6.48
2023-01-30T14:47:45.129Z,2.53
2023-01-30T14:53:01.231Z,3.51
2023-01-30T14:58:50.717Z,2.67
2023-01-30T15:04:10.020Z,3.30
2023-01-30T15:09:32.288Z,2.46
2023-01-30T15:14:56.007Z,2.70
2023-01-30T15:20:22.033Z,2.85
2023-01-30T15:30:30.466Z,3.91
2023-01-30T15:36:02.889Z,2.49
2023-01-30T15:41:38.677Z,3.32
2023-01-30T15:46:59.505Z,6.18
2023-01-30T15:52:42.848Z,4.80
2023-01-30T15:58:05.692Z,2.60
2023-01-30T16:03:26.535Z,3.69
2023-01-30T16:08:51.534Z,4.73
2023-01-30T16:14:17.232Z,3.71
2023-01-30T16:19:42.292Z,6.24
2023-01-30T16:25:03.987Z,4.81
2023-01-30T16:30:31.459Z,4.51
2023-01-30T16:35:49.575Z,5.18
2023-01-30T16:41:10.525Z,3.91
2023-01-30T16:46:46.619Z,5.84
2023-01-30T16:52:10.069Z,4.50
2023-01-30T16:57:42.475Z,6.08
2023-01-30T17:03:06.368Z,4.66
2023-01-30T17:08:34.911Z,4.18
2023-01-30T17:14:05.497Z,5.07
2023-01-30T17:20:11.935Z,7.60
2023-01-30T17:25:34.876Z,4.46
2023-01-30T17:31:00.812Z,6.78
2023-01-30T17:36:24.381Z,4.09
2023-01-30T17:41:44.667Z,3.89
2023-01-30T17:47:06.486Z,4.90
2023-01-30T17:53:09.038Z,4.71
2023-01-30T17:58:29.393Z,6.46
2023-01-30T18:03:52.992Z,4.18
2023-01-30T18:09:15.131Z,5.95
2023-01-30T18:14:41.633Z,6.88
2023-01-30T18:20:04.422Z,9.94
2023-01-30T18:25:27.545Z,6.96
2023-01-30T18:30:51.955Z,7.22
2023-01-30T18:36:11.136Z,5.41
2023-01-30T18:41:32.062Z,4.80
2023-01-30T18:46:56.687Z,6.75
2023-01-30T18:52:17.909Z,5.94
2023-01-30T18:57:41.607Z,6.64
2023-01-30T19:03:06.638Z,7.24
2023-01-30T19:08:31.646Z,6.70
2023-01-30T19:13:57.533Z,8.08
2023-01-30T19:19:22.549Z,6.87
2023-01-30T19:24:47.977Z,7.93
2023-01-30T19:30:26.891Z,9.74
2023-01-30T19:35:45.709Z,7.96
2023-01-30T19:41:10.982Z,8.40
2023-01-30T19:46:35.108Z,7.70
2023-01-30T19:51:59.302Z,6.63
2023-01-30T19:57:24.068Z,9.38
2023-01-30T20:03:13.565Z,12.88
2023-01-30T20:08:37.345Z,12.25
2023-01-30T20:14:00.460Z,9.51
2023-01-30T20:19:25.307Z,12.38
2023-01-30T20:24:53.742Z,12.76
2023-01-30T20:30:16.333Z,11.90
2023-01-30T20:35:59.683Z,10.60
2023-01-30T20:41:20.495Z,8.76
2023-01-30T20:46:42.198Z,9.01
2023-01-30T20:52:24.057Z,9.86
2023-01-30T20:57:48.041Z,9.92
2023-01-30T21:03:12.868Z,11.54
2023-01-30T21:08:37.101Z,10.02
2023-01-30T21:14:02.168Z,8.77
2023-01-30T21:19:26.406Z,8.70
2023-01-30T21:24:53.423Z,9.62
2023-01-30T21:30:29.537Z,10.72
2023-01-30T21:35:52.917Z,9.97
2023-01-30T21:41:20.002Z,10.47
2023-01-30T21:46:38.299Z,8.47
2023-01-30T21:52:01.307Z,8.78
2023-01-30T21:57:25.039Z,8.42
2023-01-30T22:02:49.053Z,12.47
2023-01-30T22:08:12.554Z,8.89
2023-01-30T22:13:34.283Z,9.89
2023-01-30T22:18:57.799Z,7.31
2023-01-30T22:24:39.658Z,8.23
2023-01-30T22:29:59.008Z,9.83
2023-01-30T22:35:26.222Z,9.85
2023-01-30T22:40:51.164Z,6.70
2023-01-30T22:46:21.595Z,10.34
2023-01-30T22:51:43.738Z,8.28
2023-01-30T22:57:31.204Z,10.01
2023-01-30T23:03:19.157Z,9.07
2023-01-30T23:08:41.701Z,10.80
2023-01-30T23:14:06.550Z,8.51
2023-01-30T23:19:31.224Z,7.90
2023-01-30T23:24:53.283Z,9.18
2023-01-30T23:30:14.804Z,9.11
2023-01-30T23:36:04.758Z,9.27
2023-01-30T23:41:25.982Z,9.51
2023-01-30T23:46:50.378Z,9.09
2023-01-30T23:52:13.496Z,10.37
2023-01-30T23:57:38.607Z,10.12
